Time;durP1;ratioP1;P1;durP2;ratioP2;P2;SDS_P1;SDS_P2;PMS_P1;PMS_P2;Temp;Humidity;BMP_temperature;BMP_pressure;BME280_temperature;BME280_humidity;BME280_pressure;Samples;Min_cycle;Max_cycle;Signal;HPM_P1;HPM_P2
2022/11/15 00:01:07;;;;;;;5.22;4.07;;;19.30;60.70;;;;;;6268018;28;20025;-66
2022/11/15 00:04:10;;;;;;;4.95;3.95;;;19.30;60.70;;;;;;6267275;28;20079;-67
2022/11/15 00:07:10;;;;;;;5.82;4.30;;;19.30;60.60;;;;;;6267210;28;20388;-66
2022/11/15 00:10:11;;;;;;;5.45;4.05;;;19.30;60.70;;;;;;6267217;28;20033;-65
2022/11/15 00:13:12;;;;;;;5.53;4.10;;;19.30;60.70;;;;;;6268196;28;20036;-66
2022/11/15 00:16:13;;;;;;;7.95;4.80;;;19.30;60.70;;;;;;6267880;28;20425;-66
2022/11/15 00:19:14;;;;;;;4.88;3.88;;;19.30;60.60;;;;;;6267469;28;20021;-67
2022/11/15 00:22:14;;;;;;;5.78;4.50;;;19.30;60.60;;;;;;6266989;28;20053;-67
2022/11/15 00:25:15;;;;;;;6.00;4.47;;;19.20;60.60;;;;;;6266934;28;20078;-67
2022/11/15 00:28:15;;;;;;;5.45;4.38;;;19.30;60.70;;;;;;6267187;28;20040;-67
2022/11/15 00:31:16;;;;;;;5.18;3.97;;;19.30;60.70;;;;;;6267446;28;20395;-68
2022/11/15 00:34:16;;;;;;;5.40;4.05;;;19.20;60.60;;;;;;6266708;28;20147;-68
2022/11/15 00:37:17;;;;;;;5.30;3.95;;;19.30;60.70;;;;;;6267347;28;20539;-67
2022/11/15 00:40:18;;;;;;;5.63;4.03;;;19.20;60.60;;;;;;6267087;28;20071;-67
2022/11/15 00:43:18;;;;;;;4.90;3.88;;;19.20;60.50;;;;;;6267067;28;20021;-67
2022/11/15 00:46:19;;;;;;;5.10;4.20;;;19.20;60.40;;;;;;6267096;28;20017;-67
2022/11/15 00:49:19;;;;;;;4.68;3.95;;;19.20;60.60;;;;;;6267298;28;20025;-68
2022/11/15 00:52:20;;;;;;;5.95;4.55;;;19.30;60.60;;;;;;6267136;28;20484;-67
2022/11/15 00:55:20;;;;;;;5.30;3.88;;;19.20;60.60;;;;;;6266885;28;20080;-68
2022/11/15 00:58:21;;;;;;;5.65;4.18;;;19.20;60.40;;;;;;6266694;28;20036;-67
2022/11/15 01:01:22;;;;;;;6.53;4.25;;;19.30;60.60;;;;;;6267530;28;20459;-68
2022/11/15 01:04:22;;;;;;;4.22;3.80;;;19.20;60.50;;;;;;6267130;28;20146;-67
2022/11/15 01:07:23;;;;;;;4.80;3.78;;;19.30;60.70;;;;;;6267228;28;20468;-67
2022/11/15 01:10:25;;;;;;;5.40;4.03;;;19.30;60.70;;;;;;6266554;28;20051;-67
2022/11/15 01:13:26;;;;;;;5.15;4.25;;;19.30;60.60;;;;;;6266922;28;20041;-66
2022/11/15 01:16:26;;;;;;;6.00;4.38;;;19.30;60.60;;;;;;6266912;28;20028;-68
2022/11/15 01:19:27;;;;;;;4.90;3.60;;;19.20;60.50;;;;;;6271284;28;20028;-67
2022/11/15 01:22:27;;;;;;;5.03;3.65;;;19.20;60.40;;;;;;6271792;28;20021;-67
2022/11/15 01:25:28;;;;;;;4.80;4.00;;;19.20;60.40;;;;;;6271779;28;20166;-67
2022/11/15 01:28:34;;;;;;;4.47;3.80;;;19.20;60.40;;;;;;6271079;28;20014;-67
2022/11/15 01:31:35;;;;;;;4.85;3.72;;;19.20;60.50;;;;;;6271837;28;20033;-68
2022/11/15 01:34:35;;;;;;;4.05;3.53;;;19.20;60.40;;;;;;6271608;28;20025;-67
2022/11/15 01:37:36;;;;;;;4.93;3.90;;;19.20;60.30;;;;;;6271514;28;20021;-68
2022/11/15 01:40:37;;;;;;;4.95;3.75;;;19.20;60.50;;;;;;6270816;28;20017;-67
2022/11/15 01:43:39;;;;;;;4.88;4.07;;;19.20;60.40;;;;;;6270962;28;20017;-67
2022/11/15 01:46:45;;;;;;;4.88;3.72;;;19.20;60.40;;;;;;6271478;28;20032;-68
2022/11/15 01:50:04;;;;;;;5.10;3.70;;;19.20;60.40;;;;;;6271306;28;20052;-68
2022/11/15 01:53:05;;;;;;;4.15;3.70;;;19.20;60.30;;;;;;6270808;28;20049;-67
2022/11/15 01:56:09;;;;;;;4.47;3.83;;;19.20;60.40;;;;;;6271163;28;20021;-67
2022/11/15 01:59:11;;;;;;;4.60;3.80;;;19.20;60.40;;;;;;6270723;28;20028;-67
2022/11/15 02:02:13;;;;;;;4.45;3.60;;;19.20;60.40;;;;;;6271327;28;20387;-68
2022/11/15 02:05:14;;;;;;;5.68;3.72;;;19.20;60.30;;;;;;6270358;28;20031;-67
2022/11/15 02:08:19;;;;;;;4.68;3.80;;;19.20;60.40;;;;;;6270828;28;20025;-67
2022/11/15 02:11:20;;;;;;;4.78;3.70;;;19.20;60.20;;;;;;6270206;28;20040;-67
2022/11/15 02:14:22;;;;;;;5.72;4.32;;;19.20;60.40;;;;;;6270400;28;20033;-66
2022/11/15 02:17:25;;;;;;;4.47;3.83;;;19.20;60.40;;;;;;6270561;28;20049;-66
2022/11/15 02:20:52;;;;;;;4.72;3.72;;;19.20;60.20;;;;;;6270327;28;20029;-67
2022/11/15 02:24:26;;;;;;;4.97;3.58;;;19.20;60.10;;;;;;6269918;28;20029;-65
2022/11/15 02:27:42;;;;;;;5.00;3.75;;;19.20;60.40;;;;;;6245833;28;20052;-67
2022/11/15 02:30:53;;;;;;;4.80;3.60;;;19.20;60.20;;;;;;6258749;28;20021;-66
2022/11/15 02:34:16;;;;;;;4.72;3.60;;;19.20;60.20;;;;;;6270348;28;20032;-66
2022/11/15 02:37:31;;;;;;;5.05;3.72;;;19.20;60.20;;;;;;6245650;28;20030;-67
2022/11/15 02:40:41;;;;;;;;;;;19.20;60.20;;;;;;6256230;28;20025;-68
2022/11/15 02:44:05;;;;;;;4.35;3.15;;;19.20;60.30;;;;;;6269604;28;20098;-66
2022/11/15 02:47:13;;;;;;;4.68;4.00;;;19.20;60.10;;;;;;6269408;28;20120;-67
2022/11/15 02:50:19;;;;;;;6.10;4.40;;;19.20;60.40;;;;;;6270061;28;20021;-66
2022/11/15 02:53:25;;;;;;;4.80;4.03;;;19.20;60.30;;;;;;6269285;28;20079;-67
2022/11/15 02:56:25;;;;;;;5.18;3.83;;;19.20;60.20;;;;;;6269888;28;20028;-67
2022/11/15 02:59:35;;;;;;;4.45;3.65;;;19.20;60.30;;;;;;6269484;28;20605;-68
2022/11/15 03:02:50;;;;;;;4.50;3.60;;;19.20;60.00;;;;;;6244656;28;20548;-67
2022/11/15 03:06:02;;;;;;;4.32;3.78;;;19.20;60.20;;;;;;6264232;28;20029;-67
2022/11/15 03:09:13;;;;;;;5.18;3.78;;;19.20;60.30;;;;;;6269319;28;20194;-67
2022/11/15 03:12:22;;;;;;;4.45;3.47;;;19.20;60.00;;;;;;6269059;28;20055;-67
2022/11/15 03:15:25;;;;;;;5.50;4.20;;;19.20;60.00;;;;;;6269026;28;20021;-67
2022/11/15 03:18:33;;;;;;;5.18;3.85;;;19.20;60.20;;;;;;6269245;28;20013;-67
2022/11/15 03:21:35;;;;;;;4.57;3.75;;;19.20;60.20;;;;;;6268982;28;20090;-67
2022/11/15 03:24:38;;;;;;;4.15;3.45;;;19.20;60.30;;;;;;6268874;28;20021;-67
2022/11/15 03:27:43;;;;;;;4.35;3.65;;;19.20;60.00;;;;;;6269340;28;20021;-67
2022/11/15 03:30:47;;;;;;;3.78;3.38;;;19.20;60.00;;;;;;6268609;28;20021;-67
2022/11/15 03:33:51;;;;;;;4.38;3.53;;;19.20;60.10;;;;;;6268601;28;20404;-67
2022/11/15 03:36:52;;;;;;;4.18;3.47;;;19.20;60.00;;;;;;6268775;28;20035;-67
2022/11/15 03:39:53;;;;;;;4.30;3.67;;;19.20;60.20;;;;;;6267579;28;20028;-66
2022/11/15 03:43:19;;;;;;;4.88;3.63;;;19.20;59.90;;;;;;6268672;28;20032;-65
2022/11/15 03:46:27;;;;;;;4.47;3.55;;;19.20;60.00;;;;;;6257916;28;20040;-67
2022/11/15 03:49:34;;;;;;;4.32;3.60;;;19.20;60.00;;;;;;6268237;28;20017;-67
2022/11/15 03:52:35;;;;;;;4.57;3.53;;;19.20;59.90;;;;;;6267878;28;20052;-67
2022/11/15 03:55:35;;;;;;;5.10;3.67;;;19.20;59.80;;;;;;6268034;28;20013;-67
2022/11/15 03:58:36;;;;;;;4.18;3.45;;;19.20;60.20;;;;;;6267985;28;20021;-66
2022/11/15 04:01:36;;;;;;;4.28;3.47;;;19.20;60.20;;;;;;6268138;28;20025;-66
2022/11/15 04:04:37;;;;;;;3.83;3.33;;;19.20;59.90;;;;;;6268005;28;20079;-66
2022/11/15 04:07:38;;;;;;;5.07;3.80;;;19.20;60.20;;;;;;6267896;28;20018;-66
2022/11/15 04:10:39;;;;;;;4.53;3.45;;;19.20;60.20;;;;;;6267439;28;20459;-66
2022/11/15 04:13:39;;;;;;;3.97;3.50;;;19.20;59.90;;;;;;6267505;28;20040;-67
2022/11/15 04:16:40;;;;;;;4.35;3.65;;;19.20;60.00;;;;;;6268201;28;20021;-68
2022/11/15 04:26:22;;;;;;;4.38;3.30;;;19.20;60.20;;;;;;6267409;28;20175;-66
2022/11/15 04:29:35;;;;;;;5.38;4.05;;;19.20;60.20;;;;;;6267434;28;20025;-66
2022/11/15 04:32:36;;;;;;;3.92;3.28;;;19.20;60.20;;;;;;6267163;28;20041;-67
2022/11/15 04:35:36;;;;;;;4.38;3.58;;;19.20;60.00;;;;;;6267402;28;20035;-67
2022/11/15 04:38:37;;;;;;;4.35;3.42;;;19.20;59.90;;;;;;6267258;28;20534;-66
2022/11/15 04:41:37;;;;;;;5.05;3.55;;;19.20;59.90;;;;;;6267027;28;20021;-65
2022/11/15 04:44:38;;;;;;;4.25;3.40;;;19.20;60.00;;;;;;6267740;28;20025;-67
2022/11/15 04:47:39;;;;;;;3.92;3.53;;;19.20;60.00;;;;;;6267384;28;20054;-66
2022/11/15 04:50:39;;;;;;;4.60;3.50;;;19.20;60.20;;;;;;6266854;28;20017;-67
2022/11/15 04:53:40;;;;;;;4.72;3.70;;;19.20;60.00;;;;;;6266657;28;20110;-67
2022/11/15 04:56:40;;;;;;;4.22;3.40;;;19.20;60.10;;;;;;6266952;28;20033;-67
2022/11/15 05:00:37;;;;;;;4.68;3.70;;;19.20;59.90;;;;;;6267139;28;20096;-67
2022/11/15 05:06:57;;;;;;;4.40;3.75;;;19.20;60.00;;;;;;6266876;28;20306;-67
2022/11/15 05:09:57;;;;;;;4.85;3.38;;;19.20;60.00;;;;;;6266898;28;20043;-66
2022/11/15 05:12:58;;;;;;;4.25;3.53;;;19.20;59.80;;;;;;6266986;28;20029;-66
2022/11/15 05:15:58;;;;;;;4.20;3.40;;;19.20;60.90;;;;;;6266815;28;20386;-66
2022/11/15 05:18:59;;;;;;;3.60;3.22;;;19.20;59.90;;;;;;6267160;28;20029;-66
2022/11/15 05:22:00;;;;;;;4.13;3.25;;;19.20;59.90;;;;;;6266355;28;20060;-67
2022/11/15 05:25:00;;;;;;;5.10;3.35;;;19.20;60.20;;;;;;6267086;28;20055;-67
2022/11/15 05:28:01;;;;;;;4.28;3.40;;;19.20;60.00;;;;;;6266754;28;20096;-66
2022/11/15 05:31:06;;;;;;;4.50;3.50;;;19.20;60.00;;;;;;6266664;28;20392;-67
2022/11/15 05:34:06;;;;;;;4.90;3.70;;;19.20;59.90;;;;;;6266703;28;20021;-67
2022/11/15 05:37:07;;;;;;;3.58;3.15;;;19.20;60.00;;;;;;6266835;28;20108;-67
2022/11/15 05:40:08;;;;;;;4.07;3.55;;;19.20;59.90;;;;;;6266738;28;20025;-67
2022/11/15 05:43:10;;;;;;;3.53;3.05;;;19.20;59.90;;;;;;6266435;28;20025;-66
2022/11/15 05:46:12;;;;;;;4.32;3.50;;;19.20;59.80;;;;;;6266171;28;20468;-67
2022/11/15 05:49:16;;;;;;;4.88;3.30;;;19.20;59.90;;;;;;6266518;28;20017;-67
2022/11/15 05:52:20;;;;;;;4.10;3.13;;;19.20;60.00;;;;;;6266331;28;20583;-67
2022/11/15 05:55:21;;;;;;;4.00;3.22;;;19.20;60.00;;;;;;6266802;28;20669;-67
2022/11/15 05:58:22;;;;;;;3.83;3.30;;;19.20;59.90;;;;;;6266125;28;20051;-67
2022/11/15 06:01:24;;;;;;;3.83;3.30;;;19.20;59.90;;;;;;6259990;28;20033;-67
2022/11/15 06:04:25;;;;;;;4.05;3.22;;;19.20;59.90;;;;;;6259480;28;20029;-66
2022/11/15 06:07:26;;;;;;;3.75;3.00;;;19.20;60.00;;;;;;6271195;28;20021;-66
2022/11/15 06:10:26;;;;;;;3.85;3.10;;;19.20;59.90;;;;;;6270352;28;20029;-65
2022/11/15 06:13:27;;;;;;;4.40;3.30;;;19.20;59.70;;;;;;6270857;28;20479;-67
2022/11/15 06:16:28;;;;;;;3.78;3.35;;;19.20;59.90;;;;;;6270544;28;20345;-66
2022/11/15 06:19:32;;;;;;;3.35;3.03;;;19.20;59.90;;;;;;6270984;28;20017;-67
2022/11/15 06:22:33;;;;;;;4.15;3.47;;;19.20;59.90;;;;;;6270552;28;20029;-67
2022/11/15 06:25:33;;;;;;;3.95;3.17;;;19.20;59.90;;;;;;6270412;28;20694;-67
2022/11/15 06:28:34;;;;;;;3.83;3.13;;;19.20;59.90;;;;;;6263495;28;20013;-66
2022/11/15 06:31:35;;;;;;;4.25;3.42;;;19.20;59.80;;;;;;6256659;28;20060;-66
2022/11/15 06:34:35;;;;;;;4.30;3.22;;;19.20;60.00;;;;;;6269058;28;20037;-66
2022/11/15 06:37:36;;;;;;;4.35;3.33;;;19.20;59.90;;;;;;6269505;28;20033;-67
2022/11/15 06:40:38;;;;;;;4.10;3.20;;;19.20;59.70;;;;;;6269498;28;20033;-66
2022/11/15 06:43:38;;;;;;;4.20;3.10;;;19.20;59.80;;;;;;6269814;28;20017;-67
2022/11/15 06:46:39;;;;;;;3.90;3.28;;;19.20;59.80;;;;;;6269669;28;20653;-66
2022/11/15 06:49:39;;;;;;;4.38;3.42;;;19.20;60.00;;;;;;6269268;28;20055;-66
2022/11/15 06:52:40;;;;;;;3.90;3.33;;;19.20;59.80;;;;;;6269055;28;20068;-67
2022/11/15 06:55:41;;;;;;;7.10;3.38;;;19.20;59.90;;;;;;6269164;28;20035;-66
2022/11/15 06:58:41;;;;;;;6.45;3.38;;;19.20;59.70;;;;;;6268063;28;20037;-66
2022/11/15 07:01:42;;;;;;;4.47;3.55;;;19.20;59.90;;;;;;6258726;28;20048;-67
2022/11/15 07:04:43;;;;;;;5.35;3.72;;;19.20;60.00;;;;;;6256042;28;20051;-66
2022/11/15 07:07:51;;;;;;;4.68;3.50;;;19.20;59.90;;;;;;6270905;28;20029;-65
2022/11/15 07:10:52;;;;;;;5.18;3.67;;;19.20;60.00;;;;;;6237556;28;20395;-66
2022/11/15 07:13:53;;;;;;;4.97;3.63;;;19.20;59.70;;;;;;6268397;28;20172;-67
2022/11/15 07:16:53;;;;;;;3.90;3.13;;;19.20;60.00;;;;;;6257475;28;20096;-67
2022/11/15 07:19:54;;;;;;;4.38;3.22;;;19.20;59.90;;;;;;6271125;28;20025;-66
2022/11/15 07:23:05;;;;;;;3.83;3.40;;;19.20;60.00;;;;;;6269642;28;20116;-67
2022/11/15 07:26:06;;;;;;;3.75;3.13;;;19.20;60.00;;;;;;6276668;28;20383;-67
2022/11/15 07:29:07;;;;;;;7.03;3.20;;;19.20;59.90;;;;;;6261859;28;20017;-66
2022/11/15 07:32:08;;;;;;;6.60;2.85;;;19.30;59.90;;;;;;6271283;28;20100;-67
2022/11/15 07:35:09;;;;;;;4.35;3.30;;;19.30;59.90;;;;;;6271542;28;20051;-67
2022/11/15 07:38:10;;;;;;;4.72;3.20;;;19.30;59.80;;;;;;6271382;28;20029;-67
2022/11/15 07:41:10;;;;;;;4.07;3.30;;;19.30;59.90;;;;;;6264937;28;20040;-66
2022/11/15 07:44:11;;;;;;;4.20;3.40;;;19.30;59.90;;;;;;6254438;28;20040;-67
2022/11/15 07:47:11;;;;;;;4.32;3.20;;;19.30;59.70;;;;;;6270612;28;20491;-67
2022/11/15 07:50:12;;;;;;;3.42;2.92;;;19.30;59.70;;;;;;6271625;28;20063;-67
2022/11/15 07:53:13;;;;;;;4.50;3.55;;;19.30;59.80;;;;;;6270970;28;20053;-66
2022/11/15 07:56:13;;;;;;;3.80;3.00;;;19.30;59.90;;;;;;6271453;28;20036;-68
2022/11/15 07:59:14;;;;;;;4.00;3.17;;;19.30;60.00;;;;;;6270956;28;20051;-66
2022/11/15 08:02:17;;;;;;;4.85;3.70;;;19.30;59.70;;;;;;6271093;28;20554;-67
2022/11/15 08:05:18;;;;;;;4.45;3.25;;;19.30;59.90;;;;;;6259952;28;20029;-66
2022/11/15 08:08:18;;;;;;;4.80;3.50;;;19.30;59.80;;;;;;6270047;28;20052;-66
2022/11/15 08:11:19;;;;;;;3.88;3.30;;;19.30;59.70;;;;;;6264745;28;20029;-67
2022/11/15 08:14:21;;;;;;;3.78;2.83;;;19.30;59.60;;;;;;6270969;28;20025;-66
2022/11/15 08:17:23;;;;;;;8.63;3.25;;;19.40;59.60;;;;;;6270148;28;20037;-67
2022/11/15 08:20:25;;;;;;;4.25;3.20;;;19.40;59.60;;;;;;6270654;28;20044;-67
2022/11/15 08:23:25;;;;;;;3.92;3.22;;;19.40;59.70;;;;;;6270193;28;20025;-65
2022/11/15 08:26:28;;;;;;;4.85;3.08;;;19.30;59.80;;;;;;6270370;28;20134;-66
2022/11/15 08:29:29;;;;;;;4.15;3.15;;;19.30;60.00;;;;;;6285877;28;20032;-67
2022/11/15 08:32:31;;;;;;;4.18;3.40;;;19.30;60.00;;;;;;6270520;28;20033;-67
2022/11/15 08:35:32;;;;;;;4.18;3.45;;;19.30;60.00;;;;;;6270276;28;20017;-67
2022/11/15 08:38:33;;;;;;;7.32;3.55;;;19.30;60.00;;;;;;6259993;28;20063;-66
2022/11/15 08:41:36;;;;;;;5.40;3.35;;;19.30;60.00;;;;;;6270487;28;20021;-66
2022/11/15 08:44:37;;;;;;;3.83;3.00;;;19.30;60.00;;;;;;6270059;28;20040;-66
2022/11/15 08:47:37;;;;;;;3.42;3.05;;;19.30;60.00;;;;;;6270029;28;20036;-66
2022/11/15 08:50:38;;;;;;;5.43;3.53;;;19.30;60.00;;;;;;6269896;28;20032;-67
2022/11/15 08:53:39;;;;;;;4.32;3.30;;;19.30;60.00;;;;;;6269535;28;20044;-66
2022/11/15 08:56:39;;;;;;;4.00;3.50;;;19.30;60.10;;;;;;6269721;28;20095;-67
2022/11/15 08:59:40;;;;;;;3.70;3.10;;;19.30;60.10;;;;;;6269874;28;20033;-67
2022/11/15 09:02:40;;;;;;;5.47;3.08;;;19.30;60.10;;;;;;6269355;28;20029;-67
2022/11/15 09:05:41;;;;;;;3.50;3.20;;;19.30;60.10;;;;;;6269899;28;20029;-67
2022/11/15 09:08:42;;;;;;;3.60;3.22;;;19.30;60.00;;;;;;6270007;28;20032;-67
2022/11/15 09:11:42;;;;;;;4.95;3.50;;;19.30;60.00;;;;;;6255549;28;20039;-67
2022/11/15 09:14:43;;;;;;;5.78;3.13;;;19.30;60.00;;;;;;6268239;28;20047;-67
2022/11/15 09:17:44;;;;;;;3.95;2.97;;;19.30;60.10;;;;;;6266759;28;20495;-67
2022/11/15 09:20:44;;;;;;;4.00;3.40;;;19.30;60.10;;;;;;6268491;28;20379;-67
2022/11/15 09:23:45;;;;;;;4.18;2.95;;;19.30;60.20;;;;;;6267676;28;20029;-67
2022/11/15 09:26:45;;;;;;;4.55;3.20;;;19.30;60.20;;;;;;6267968;28;20487;-67
2022/11/15 09:29:46;;;;;;;5.72;3.42;;;19.30;60.20;;;;;;6267873;28;20025;-67
2022/11/15 09:32:46;;;;;;;8.07;3.47;;;19.30;60.20;;;;;;6267533;28;20119;-67
2022/11/15 09:35:47;;;;;;;5.68;3.38;;;19.30;60.10;;;;;;6267524;28;20036;-66
2022/11/15 09:38:48;;;;;;;6.82;4.25;;;19.30;60.20;;;;;;6269264;28;20059;-66
2022/11/15 09:41:58;;;;;;;8.88;3.38;;;19.30;60.10;;;;;;6272784;28;20033;-67
2022/11/15 09:45:36;;;;;;;5.88;3.85;;;19.30;60.10;;;;;;6271783;28;20430;-67
2022/11/15 09:48:55;;;;;;;6.97;4.95;;;19.30;59.60;;;;;;6272053;28;20021;-67
2022/11/15 09:51:56;;;;;;;6.25;4.50;;;19.30;59.40;;;;;;6272449;28;20041;-66
2022/11/15 09:54:57;;;;;;;5.25;3.97;;;19.30;59.60;;;;;;6271623;28;20037;-67
2022/11/15 09:58:10;;;;;;;5.82;3.95;;;19.30;59.70;;;;;;6272426;28;20052;-67
2022/11/15 10:01:49;;;;;;;6.80;4.40;;;19.30;59.80;;;;;;6271956;28;20048;-67
2022/11/15 10:04:51;;;;;;;6.22;3.90;;;19.30;59.90;;;;;;6257060;28;20132;-67
2022/11/15 10:08:17;;;;;;;8.23;4.28;;;19.30;59.90;;;;;;6272138;28;20034;-66
2022/11/15 10:11:20;;;;;;;;;;;19.30;59.90;;;;;;6253339;28;20036;-66
2022/11/15 10:14:24;;;;;;;5.40;4.05;;;19.30;59.90;;;;;;6265720;28;19908;-67
2022/11/15 10:17:36;;;;;;;5.70;3.78;;;19.30;59.90;;;;;;6271456;28;20376;-65
2022/11/15 10:20:52;;;;;;;5.55;3.90;;;19.30;59.90;;;;;;6271062;28;20033;-68
2022/11/15 10:23:53;;;;;;;6.63;4.03;;;19.30;60.00;;;;;;6271429;28;20075;-67
2022/11/15 10:26:55;;;;;;;5.30;3.75;;;19.30;59.90;;;;;;6265803;28;20071;-67
2022/11/15 10:29:56;;;;;;;5.65;4.05;;;19.30;59.90;;;;;;6269193;28;20116;-66
2022/11/15 10:32:56;;;;;;;4.95;3.95;;;19.30;59.90;;;;;;6271178;28;20541;-67
2022/11/15 10:36:09;;;;;;;5.95;3.75;;;19.30;60.00;;;;;;6269466;28;20033;-67
2022/11/15 10:39:13;;;;;;;6.38;3.90;;;19.30;60.00;;;;;;6271025;28;20395;-66
2022/11/15 10:42:27;;;;;;;5.68;3.67;;;19.30;60.00;;;;;;6271929;28;20129;-66
2022/11/15 10:45:31;;;;;;;7.13;3.80;;;19.30;60.00;;;;;;6259548;28;20017;-67
2022/11/15 10:48:32;;;;;;;4.50;3.53;;;19.30;60.00;;;;;;6255566;28;20263;-67
2022/11/15 10:51:33;;;;;;;5.20;3.80;;;19.30;60.00;;;;;;6268944;28;20088;-67
2022/11/15 10:54:39;;;;;;;4.28;3.47;;;19.30;60.00;;;;;;6271645;28;20076;-66
2022/11/15 10:57:52;;;;;;;5.57;3.75;;;19.40;60.00;;;;;;6272977;28;20115;-67
2022/11/15 11:00:54;;;;;;;8.80;3.78;;;19.40;60.00;;;;;;6271937;28;20032;-67
2022/11/15 11:04:01;;;;;;;4.05;3.17;;;19.40;59.90;;;;;;6272260;28;20017;-66
2022/11/15 11:07:01;;;;;;;4.97;3.58;;;19.40;59.90;;;;;;6272291;28;20047;-67
2022/11/15 11:10:21;;;;;;;6.30;4.05;;;19.40;59.90;;;;;;6264686;28;20021;-66
2022/11/15 11:13:26;;;;;;;5.13;3.80;;;19.40;60.00;;;;;;6261182;28;20040;-67
2022/11/15 11:16:42;;;;;;;4.05;3.40;;;19.40;59.90;;;;;;6270728;28;20487;-67
2022/11/15 11:20:10;;;;;;;9.48;3.47;;;19.40;59.90;;;;;;6272214;28;20037;-67
2022/11/15 11:23:35;;;;;;;5.25;4.15;;;19.40;59.90;;;;;;6271961;28;20219;-67
2022/11/15 11:26:57;;;;;;;5.20;3.85;;;19.40;60.00;;;;;;6271911;28;20028;-67
2022/11/15 11:30:08;;;;;;;6.18;3.72;;;19.40;60.00;;;;;;6271722;28;20400;-67
2022/11/15 11:33:31;;;;;;;4.78;3.72;;;19.40;60.00;;;;;;6271551;28;20029;-66
2022/11/15 11:36:39;;;;;;;5.22;3.58;;;19.40;60.00;;;;;;6257388;28;20029;-67
2022/11/15 11:40:04;;;;;;;6.97;3.50;;;19.40;60.10;;;;;;6271148;28;20028;-68
2022/11/15 11:43:20;;;;;;;6.13;3.40;;;19.40;60.10;;;;;;6271767;28;20032;-66
2022/11/15 11:46:29;;;;;;;4.50;3.58;;;19.40;60.10;;;;;;6253862;28;20052;-67
2022/11/15 11:49:57;;;;;;;4.60;3.22;;;19.40;60.10;;;;;;6260902;28;20025;-67
2022/11/15 11:53:13;;;;;;;4.97;3.28;;;19.40;60.10;;;;;;6266529;28;20770;-67
2022/11/15 11:56:33;;;;;;;6.20;3.58;;;19.40;60.10;;;;;;6270752;28;20475;-67
2022/11/15 11:59:45;;;;;;;4.88;3.35;;;19.40;60.20;;;;;;6271193;28;20033;-68
2022/11/15 12:03:07;;;;;;;4.43;3.20;;;19.40;60.20;;;;;;6269791;28;20028;-67
2022/11/15 12:06:44;;;;;;;4.18;3.10;;;19.40;60.20;;;;;;6270860;28;20098;-67
2022/11/15 12:09:49;;;;;;;3.67;3.20;;;19.40;60.20;;;;;;6271013;28;20021;-67
2022/11/15 12:13:15;;;;;;;5.07;3.22;;;19.40;60.20;;;;;;6270519;28;20037;-67
2022/11/15 12:16:28;;;;;;;5.03;3.20;;;19.40;60.20;;;;;;6270282;28;20025;-67
2022/11/15 12:19:30;;;;;;;5.10;3.28;;;19.40;60.20;;;;;;6270935;28;20642;-67
2022/11/15 12:22:49;;;;;;;4.88;3.28;;;19.40;60.20;;;;;;6270220;28;20032;-67
2022/11/15 12:26:09;;;;;;;6.18;3.30;;;19.40;60.30;;;;;;6270739;28;20122;-67
2022/11/15 12:29:25;;;;;;;7.82;3.42;;;19.40;60.40;;;;;;6270794;28;20020;-69
2022/11/15 12:32:32;;;;;;;5.10;3.25;;;19.40;60.40;;;;;;6270121;28;20094;-68
2022/11/15 12:35:42;;;;;;;3.65;2.80;;;19.40;60.40;;;;;;6251364;28;20033;-69
2022/11/15 12:38:52;;;;;;;3.45;2.75;;;19.40;60.50;;;;;;6270385;28;20476;-66
2022/11/15 12:41:56;;;;;;;5.40;3.33;;;19.40;60.40;;;;;;6269955;28;20062;-66
2022/11/15 12:44:58;;;;;;;3.72;2.80;;;19.40;60.20;;;;;;6270559;28;20017;-66
2022/11/15 12:48:17;;;;;;;4.68;3.25;;;19.40;60.20;;;;;;6269967;28;20033;-67
2022/11/15 12:51:21;;;;;;;3.47;2.88;;;19.40;60.30;;;;;;6268885;28;20573;-69
2022/11/15 12:54:22;;;;;;;4.95;3.15;;;19.40;60.30;;;;;;6269656;28;20032;-69
2022/11/15 12:57:26;;;;;;;4.32;2.72;;;19.40;60.40;;;;;;6269777;28;20617;-66
2022/11/15 13:00:29;;;;;;;5.47;3.13;;;19.40;60.40;;;;;;6269746;28;20045;-67
2022/11/15 13:03:30;;;;;;;4.32;2.70;;;19.40;60.40;;;;;;6270066;28;20036;-69
2022/11/15 13:06:42;;;;;;;4.18;3.20;;;19.40;60.30;;;;;;6269940;28;20103;-69
2022/11/15 13:09:42;;;;;;;3.80;2.97;;;19.40;60.40;;;;;;6264427;28;20053;-66
2022/11/15 13:12:46;;;;;;;5.90;3.00;;;19.40;60.60;;;;;;6270912;28;20059;-66
2022/11/15 13:15:58;;;;;;;3.50;2.70;;;19.40;60.40;;;;;;6274921;28;20102;-70
2022/11/15 13:19:01;;;;;;;3.90;2.83;;;19.40;60.40;;;;;;6274856;28;20159;-66
2022/11/15 13:25:39;;;;;;;3.67;2.90;;;19.40;60.50;;;;;;6254721;28;20033;-66
2022/11/15 13:28:45;;;;;;;3.97;2.65;;;19.40;60.40;;;;;;6274884;28;20029;-66
2022/11/15 13:31:47;;;;;;;3.65;2.90;;;19.40;60.40;;;;;;6274488;28;20090;-66
2022/11/15 13:34:52;;;;;;;3.42;2.65;;;19.40;60.40;;;;;;6274341;28;20063;-68
2022/11/15 13:37:53;;;;;;;;;;;19.40;60.50;;;;;;6274883;28;20112;-66
2022/11/15 13:40:55;;;;;;;4.45;2.97;;;19.40;60.50;;;;;;6274643;28;19908;-67
2022/11/15 13:43:57;;;;;;;4.85;3.08;;;19.40;60.40;;;;;;6274545;28;20547;-66
2022/11/15 13:47:19;;;;;;;4.75;2.85;;;19.40;60.50;;;;;;6274444;28;20373;-67
2022/11/15 13:50:24;;;;;;;4.32;2.97;;;19.40;60.40;;;;;;6273790;28;20029;-69
2022/11/15 13:53:25;;;;;;;3.60;2.80;;;19.40;60.50;;;;;;6254976;28;20048;-69
2022/11/15 13:56:28;;;;;;;3.20;2.80;;;19.40;60.50;;;;;;6273600;28;20052;-66
2022/11/15 13:59:35;;;;;;;3.65;2.72;;;19.40;60.50;;;;;;6274053;28;20056;-67
2022/11/15 14:02:36;;;;;;;3.85;2.83;;;19.40;60.50;;;;;;6273974;28;20693;-69
2022/11/15 14:05:38;;;;;;;3.67;2.92;;;19.40;60.50;;;;;;6273000;28;20025;-69
2022/11/15 14:08:40;;;;;;;3.63;2.67;;;19.40;60.50;;;;;;6273859;28;20032;-70
2022/11/15 14:11:55;;;;;;;3.33;2.60;;;19.40;60.50;;;;;;6259844;28;20045;-70
2022/11/15 14:14:57;;;;;;;3.20;2.70;;;19.40;60.50;;;;;;6269962;28;20389;-66
2022/11/15 14:17:58;;;;;;;3.20;2.60;;;19.40;60.50;;;;;;6266702;28;20573;-66
2022/11/15 14:21:08;;;;;;;5.90;2.85;;;19.40;60.60;;;;;;6273352;28;20021;-66
2022/11/15 14:24:20;;;;;;;2.78;2.30;;;19.40;60.60;;;;;;6272596;28;20029;-67
2022/11/15 14:27:28;;;;;;;4.18;2.75;;;19.40;60.50;;;;;;6273040;28;20033;-66
2022/11/15 14:30:29;;;;;;;4.47;2.80;;;19.40;60.50;;;;;;6273588;28;20031;-67
2022/11/15 14:33:37;;;;;;;4.68;2.55;;;19.40;60.60;;;;;;6273236;28;20392;-67
2022/11/15 14:36:37;;;;;;;4.05;2.60;;;19.40;60.60;;;;;;6261708;28;20100;-69
2022/11/15 14:39:38;;;;;;;4.68;2.95;;;19.40;60.60;;;;;;6273137;28;20037;-68
2022/11/15 14:42:39;;;;;;;6.70;2.55;;;19.40;60.40;;;;;;6273088;28;20048;-69
2022/11/15 14:45:39;;;;;;;4.05;2.85;;;19.50;60.30;;;;;;6273389;28;20403;-66
2022/11/15 14:48:40;;;;;;;3.28;2.35;;;19.50;60.20;;;;;;6273212;28;20163;-66
2022/11/15 14:51:41;;;;;;;3.00;2.53;;;19.50;60.20;;;;;;6272422;28;20061;-66
2022/11/15 14:54:42;;;;;;;3.95;2.47;;;19.50;60.10;;;;;;6272749;28;20044;-69
2022/11/15 14:57:42;;;;;;;4.50;2.60;;;19.50;60.00;;;;;;6272948;28;20526;-69
2022/11/15 15:00:43;;;;;;;2.72;2.42;;;19.50;60.00;;;;;;6272162;28;20051;-69
2022/11/15 15:03:44;;;;;;;5.32;2.67;;;19.50;60.00;;;;;;6271710;28;20033;-66
2022/11/15 15:06:44;;;;;;;3.08;2.25;;;19.50;59.90;;;;;;6268720;28;20021;-67
2022/11/15 15:09:45;;;;;;;4.07;2.63;;;19.50;60.00;;;;;;6266862;28;20043;-66
2022/11/15 15:12:46;;;;;;;4.40;2.70;;;19.50;60.10;;;;;;6271843;28;20037;-66
2022/11/15 15:15:48;;;;;;;3.90;2.80;;;19.50;60.10;;;;;;6271347;28;20071;-67
2022/11/15 15:18:48;;;;;;;3.05;2.30;;;19.50;60.20;;;;;;6271238;28;20024;-66
2022/11/15 15:21:49;;;;;;;5.72;2.58;;;19.50;60.40;;;;;;6271468;28;20025;-66
2022/11/15 15:24:49;;;;;;;3.60;2.30;;;19.50;60.40;;;;;;6263185;28;20048;-66
2022/11/15 15:27:50;;;;;;;3.92;2.60;;;19.50;60.50;;;;;;6271179;28;20033;-66
2022/11/15 15:30:52;;;;;;;3.97;2.50;;;19.50;60.50;;;;;;6271316;28;20131;-66
2022/11/15 15:33:53;;;;;;;2.95;2.30;;;19.40;61.30;;;;;;6270949;28;20497;-67
2022/11/15 15:37:13;;;;;;;3.22;2.05;;;19.50;61.40;;;;;;6270399;28;20035;-69
2022/11/15 15:40:22;;;;;;;3.70;2.53;;;19.40;60.40;;;;;;6269980;28;20554;-68
2022/11/15 15:43:23;;;;;;;2.85;2.55;;;19.40;60.40;;;;;;6270959;28;20039;-69
2022/11/15 15:46:24;;;;;;;3.15;2.42;;;19.40;60.40;;;;;;6269926;28;20033;-66
2022/11/15 15:49:25;;;;;;;5.00;2.35;;;19.40;60.40;;;;;;6270468;28;20047;-67
2022/11/15 15:52:25;;;;;;;4.00;2.42;;;19.40;60.50;;;;;;6270505;28;20041;-67
2022/11/15 15:55:26;;;;;;;4.55;2.53;;;19.40;60.50;;;;;;6269990;28;20017;-66
2022/11/15 15:58:27;;;;;;;4.03;2.63;;;19.40;60.50;;;;;;6270186;28;20037;-67
2022/11/15 16:01:28;;;;;;;3.47;2.70;;;19.40;60.40;;;;;;6271062;28;20029;-66
2022/11/15 16:04:28;;;;;;;5.13;2.67;;;19.40;60.40;;;;;;6270362;28;20039;-66
2022/11/15 16:07:29;;;;;;;4.15;2.28;;;19.40;60.40;;;;;;6269687;28;20502;-67
2022/11/15 16:10:33;;;;;;;2.80;2.45;;;19.40;60.50;;;;;;6268963;28;20055;-66
2022/11/15 16:13:34;;;;;;;6.77;2.40;;;19.40;60.40;;;;;;6270208;28;20044;-67
2022/11/15 16:16:35;;;;;;;4.85;2.75;;;19.40;60.50;;;;;;6269212;28;20064;-66